sensor_id;sensor_type;location;lat;lon;timestamp;P1;durP1;ratioP1;P2;durP2;ratioP2
24801;SDS011;12898;50.520;12.152;2023-07-16T00:00:29;9.05;;;3.78;;
24801;SDS011;12898;50.520;12.152;2023-07-16T00:02:55;16.40;;;4.72;;
24801;SDS011;12898;50.520;12.152;2023-07-16T00:05:21;8.82;;;4.18;;
24801;SDS011;12898;50.520;12.152;2023-07-16T00:07:47;9.68;;;4.00;;
24801;SDS011;12898;50.520;12.152;2023-07-16T00:10:13;8.65;;;3.53;;
24801;SDS011;12898;50.520;12.152;2023-07-16T00:12:39;9.55;;;4.05;;
24801;SDS011;12898;50.520;12.152;2023-07-16T00:15:05;8.23;;;3.88;;
24801;SDS011;12898;50.520;12.152;2023-07-16T00:17:31;9.35;;;3.90;;
24801;SDS011;12898;50.520;12.152;2023-07-16T00:19:59;8.25;;;3.75;;
24801;SDS011;12898;50.520;12.152;2023-07-16T00:22:24;8.50;;;3.95;;
24801;SDS011;12898;50.520;12.152;2023-07-16T00:24:50;8.32;;;3.95;;
24801;SDS011;12898;50.520;12.152;2023-07-16T00:27:15;9.30;;;4.05;;
24801;SDS011;12898;50.520;12.152;2023-07-16T00:29:41;9.50;;;4.13;;
24801;SDS011;12898;50.520;12.152;2023-07-16T00:32:07;10.68;;;3.70;;
24801;SDS011;12898;50.520;12.152;2023-07-16T00:34:33;6.82;;;3.72;;
24801;SDS011;12898;50.520;12.152;2023-07-16T00:36:58;11.25;;;3.90;;
24801;SDS011;12898;50.520;12.152;2023-07-16T00:39:27;10.93;;;4.00;;
24801;SDS011;12898;50.520;12.152;2023-07-16T00:41:54;6.18;;;3.95;;
24801;SDS011;12898;50.520;12.152;2023-07-16T00:44:21;10.05;;;4.00;;
24801;SDS011;12898;50.520;12.152;2023-07-16T00:46:47;6.80;;;4.18;;
24801;SDS011;12898;50.520;12.152;2023-07-16T00:49:14;8.60;;;4.38;;
24801;SDS011;12898;50.520;12.152;2023-07-16T00:51:40;6.10;;;4.10;;
24801;SDS011;12898;50.520;12.152;2023-07-16T00:54:08;9.05;;;4.53;;
24801;SDS011;12898;50.520;12.152;2023-07-16T00:56:34;7.05;;;4.32;;
24801;SDS011;12898;50.520;12.152;2023-07-16T00:59:02;7.30;;;4.32;;
24801;SDS011;12898;50.520;12.152;2023-07-16T01:01:27;7.93;;;4.60;;
24801;SDS011;12898;50.520;12.152;2023-07-16T01:03:53;8.85;;;4.88;;
24801;SDS011;12898;50.520;12.152;2023-07-16T01:06:25;9.38;;;5.18;;
24801;SDS011;12898;50.520;12.152;2023-07-16T01:09:18;7.15;;;4.53;;
24801;SDS011;12898;50.520;12.152;2023-07-16T01:11:45;7.63;;;4.70;;
24801;SDS011;12898;50.520;12.152;2023-07-16T01:14:13;9.85;;;4.70;;
24801;SDS011;12898;50.520;12.152;2023-07-16T01:16:41;9.75;;;4.80;;
24801;SDS011;12898;50.520;12.152;2023-07-16T01:19:07;7.78;;;4.47;;
24801;SDS011;12898;50.520;12.152;2023-07-16T01:21:49;8.05;;;4.32;;
24801;SDS011;12898;50.520;12.152;2023-07-16T01:24:40;7.80;;;4.70;;
24801;SDS011;12898;50.520;12.152;2023-07-16T01:30:24;8.50;;;4.97;;
24801;SDS011;12898;50.520;12.152;2023-07-16T01:32:53;10.68;;;4.18;;
24801;SDS011;12898;50.520;12.152;2023-07-16T01:35:20;7.15;;;4.60;;
24801;SDS011;12898;50.520;12.152;2023-07-16T01:37:46;8.70;;;3.92;;
24801;SDS011;12898;50.520;12.152;2023-07-16T01:40:12;8.43;;;4.28;;
24801;SDS011;12898;50.520;12.152;2023-07-16T01:42:39;9.75;;;4.13;;
24801;SDS011;12898;50.520;12.152;2023-07-16T01:45:05;7.80;;;4.45;;
24801;SDS011;12898;50.520;12.152;2023-07-16T01:50:31;9.68;;;4.80;;
24801;SDS011;12898;50.520;12.152;2023-07-16T01:52:57;9.15;;;4.47;;
24801;SDS011;12898;50.520;12.152;2023-07-16T01:55:22;7.93;;;4.47;;
24801;SDS011;12898;50.520;12.152;2023-07-16T01:57:48;7.75;;;4.97;;
24801;SDS011;12898;50.520;12.152;2023-07-16T02:00:14;6.13;;;4.00;;
24801;SDS011;12898;50.520;12.152;2023-07-16T02:02:40;7.30;;;4.43;;
24801;SDS011;12898;50.520;12.152;2023-07-16T02:05:05;10.50;;;5.30;;
24801;SDS011;12898;50.520;12.152;2023-07-16T02:07:31;11.48;;;4.70;;
24801;SDS011;12898;50.520;12.152;2023-07-16T02:09:57;6.53;;;4.35;;
24801;SDS011;12898;50.520;12.152;2023-07-16T02:12:22;6.65;;;4.43;;
24801;SDS011;12898;50.520;12.152;2023-07-16T02:14:48;9.20;;;4.35;;
24801;SDS011;12898;50.520;12.152;2023-07-16T02:17:14;7.10;;;3.40;;
24801;SDS011;12898;50.520;12.152;2023-07-16T02:19:39;6.07;;;3.72;;
24801;SDS011;12898;50.520;12.152;2023-07-16T02:22:05;6.53;;;3.70;;
24801;SDS011;12898;50.520;12.152;2023-07-16T02:24:31;5.82;;;3.10;;
24801;SDS011;12898;50.520;12.152;2023-07-16T02:26:56;8.43;;;3.53;;
24801;SDS011;12898;50.520;12.152;2023-07-16T02:29:22;8.55;;;3.40;;
24801;SDS011;12898;50.520;12.152;2023-07-16T02:31:48;6.72;;;3.92;;
24801;SDS011;12898;50.520;12.152;2023-07-16T02:34:13;5.00;;;3.45;;
24801;SDS011;12898;50.520;12.152;2023-07-16T02:36:39;4.30;;;3.17;;
24801;SDS011;12898;50.520;12.152;2023-07-16T02:39:05;4.72;;;2.88;;
24801;SDS011;12898;50.520;12.152;2023-07-16T02:41:30;5.63;;;3.33;;
24801;SDS011;12898;50.520;12.152;2023-07-16T02:44:00;4.57;;;3.15;;
24801;SDS011;12898;50.520;12.152;2023-07-16T02:46:28;7.82;;;3.13;;
24801;SDS011;12898;50.520;12.152;2023-07-16T02:48:54;6.05;;;3.58;;
24801;SDS011;12898;50.520;12.152;2023-07-16T02:51:19;6.43;;;3.20;;
24801;SDS011;12898;50.520;12.152;2023-07-16T02:53:45;4.85;;;3.35;;
24801;SDS011;12898;50.520;12.152;2023-07-16T02:56:11;4.68;;;3.20;;
24801;SDS011;12898;50.520;12.152;2023-07-16T02:58:36;7.45;;;3.22;;
24801;SDS011;12898;50.520;12.152;2023-07-16T03:01:02;5.80;;;2.90;;
24801;SDS011;12898;50.520;12.152;2023-07-16T03:03:28;7.82;;;3.40;;
24801;SDS011;12898;50.520;12.152;2023-07-16T03:05:54;6.47;;;3.33;;
24801;SDS011;12898;50.520;12.152;2023-07-16T03:08:19;4.63;;;3.08;;
24801;SDS011;12898;50.520;12.152;2023-07-16T03:10:45;4.20;;;2.78;;
24801;SDS011;12898;50.520;12.152;2023-07-16T03:13:11;7.88;;;3.22;;
24801;SDS011;12898;50.520;12.152;2023-07-16T03:15:37;5.65;;;2.83;;
24801;SDS011;12898;50.520;12.152;2023-07-16T03:18:02;4.28;;;3.03;;
24801;SDS011;12898;50.520;12.152;2023-07-16T03:20:28;6.13;;;3.42;;
24801;SDS011;12898;50.520;12.152;2023-07-16T03:22:54;5.30;;;3.10;;
24801;SDS011;12898;50.520;12.152;2023-07-16T03:25:19;7.90;;;3.38;;
24801;SDS011;12898;50.520;12.152;2023-07-16T03:27:45;5.00;;;3.13;;
24801;SDS011;12898;50.520;12.152;2023-07-16T03:30:11;5.95;;;3.60;;
24801;SDS011;12898;50.520;12.152;2023-07-16T03:32:36;4.25;;;2.85;;
24801;SDS011;12898;50.520;12.152;2023-07-16T03:35:02;3.63;;;2.63;;
24801;SDS011;12898;50.520;12.152;2023-07-16T03:37:28;4.80;;;2.88;;
24801;SDS011;12898;50.520;12.152;2023-07-16T03:39:54;5.38;;;2.97;;
24801;SDS011;12898;50.520;12.152;2023-07-16T03:42:19;5.68;;;3.33;;
24801;SDS011;12898;50.520;12.152;2023-07-16T03:44:47;5.32;;;3.08;;
24801;SDS011;12898;50.520;12.152;2023-07-16T03:47:12;5.65;;;3.00;;
24801;SDS011;12898;50.520;12.152;2023-07-16T03:49:38;5.25;;;3.25;;
24801;SDS011;12898;50.520;12.152;2023-07-16T03:52:04;5.72;;;3.50;;
24801;SDS011;12898;50.520;12.152;2023-07-16T03:54:31;6.35;;;3.13;;
24801;SDS011;12898;50.520;12.152;2023-07-16T03:56:56;4.07;;;2.90;;
24801;SDS011;12898;50.520;12.152;2023-07-16T03:59:22;4.20;;;2.85;;
24801;SDS011;12898;50.520;12.152;2023-07-16T04:01:48;3.92;;;3.10;;
24801;SDS011;12898;50.520;12.152;2023-07-16T04:04:13;9.63;;;3.40;;
24801;SDS011;12898;50.520;12.152;2023-07-16T04:06:39;6.13;;;3.53;;
24801;SDS011;12898;50.520;12.152;2023-07-16T04:09:04;11.85;;;4.03;;
24801;SDS011;12898;50.520;12.152;2023-07-16T04:11:30;8.77;;;3.75;;
24801;SDS011;12898;50.520;12.152;2023-07-16T04:13:56;6.93;;;3.22;;
24801;SDS011;12898;50.520;12.152;2023-07-16T04:16:21;6.22;;;3.53;;
24801;SDS011;12898;50.520;12.152;2023-07-16T04:18:47;9.00;;;4.22;;
24801;SDS011;12898;50.520;12.152;2023-07-16T04:21:13;7.10;;;4.22;;
24801;SDS011;12898;50.520;12.152;2023-07-16T04:23:39;7.25;;;3.97;;
24801;SDS011;12898;50.520;12.152;2023-07-16T04:26:04;10.02;;;4.30;;
24801;SDS011;12898;50.520;12.152;2023-07-16T04:28:30;5.28;;;3.13;;
24801;SDS011;12898;50.520;12.152;2023-07-16T04:30:55;7.10;;;3.22;;
24801;SDS011;12898;50.520;12.152;2023-07-16T04:33:21;4.45;;;3.20;;
24801;SDS011;12898;50.520;12.152;2023-07-16T04:35:47;4.18;;;2.97;;
24801;SDS011;12898;50.520;12.152;2023-07-16T04:38:12;5.55;;;3.03;;
24801;SDS011;12898;50.520;12.152;2023-07-16T04:40:38;4.63;;;3.20;;
24801;SDS011;12898;50.520;12.152;2023-07-16T04:43:04;5.28;;;3.17;;
24801;SDS011;12898;50.520;12.152;2023-07-16T04:45:29;6.50;;;2.83;;
24801;SDS011;12898;50.520;12.152;2023-07-16T04:47:55;4.75;;;2.60;;
24801;SDS011;12898;50.520;12.152;2023-07-16T04:50:21;6.65;;;2.65;;
24801;SDS011;12898;50.520;12.152;2023-07-16T04:52:46;4.75;;;2.70;;
24801;SDS011;12898;50.520;12.152;2023-07-16T04:55:12;6.18;;;3.08;;
24801;SDS011;12898;50.520;12.152;2023-07-16T04:57:38;3.53;;;2.70;;
24801;SDS011;12898;50.520;12.152;2023-07-16T05:00:04;4.45;;;2.45;;
24801;SDS011;12898;50.520;12.152;2023-07-16T05:02:31;4.00;;;2.63;;
24801;SDS011;12898;50.520;12.152;2023-07-16T05:04:57;3.78;;;2.50;;
24801;SDS011;12898;50.520;12.152;2023-07-16T05:07:23;5.10;;;2.58;;
24801;SDS011;12898;50.520;12.152;2023-07-16T05:09:49;5.43;;;2.88;;
24801;SDS011;12898;50.520;12.152;2023-07-16T05:12:14;4.25;;;2.60;;
24801;SDS011;12898;50.520;12.152;2023-07-16T05:14:44;4.82;;;2.65;;
24801;SDS011;12898;50.520;12.152;2023-07-16T05:17:12;5.30;;;2.65;;
24801;SDS011;12898;50.520;12.152;2023-07-16T05:19:39;5.18;;;2.80;;
24801;SDS011;12898;50.520;12.152;2023-07-16T05:22:05;5.43;;;2.58;;
24801;SDS011;12898;50.520;12.152;2023-07-16T05:24:31;4.82;;;2.45;;
24801;SDS011;12898;50.520;12.152;2023-07-16T05:26:57;4.28;;;2.70;;
24801;SDS011;12898;50.520;12.152;2023-07-16T05:29:23;7.25;;;2.95;;
24801;SDS011;12898;50.520;12.152;2023-07-16T05:31:48;15.30;;;3.63;;
24801;SDS011;12898;50.520;12.152;2023-07-16T05:34:14;16.30;;;2.95;;
24801;SDS011;12898;50.520;12.152;2023-07-16T05:36:41;10.05;;;2.72;;
24801;SDS011;12898;50.520;12.152;2023-07-16T05:39:09;7.55;;;2.83;;
24801;SDS011;12898;50.520;12.152;2023-07-16T05:41:37;4.60;;;2.20;;
24801;SDS011;12898;50.520;12.152;2023-07-16T05:44:06;6.15;;;2.50;;
24801;SDS011;12898;50.520;12.152;2023-07-16T05:46:33;6.28;;;2.20;;
24801;SDS011;12898;50.520;12.152;2023-07-16T05:48:59;6.47;;;2.70;;
24801;SDS011;12898;50.520;12.152;2023-07-16T05:51:24;5.32;;;2.33;;
24801;SDS011;12898;50.520;12.152;2023-07-16T05:53:50;5.57;;;2.65;;
24801;SDS011;12898;50.520;12.152;2023-07-16T05:56:16;4.63;;;2.38;;
24801;SDS011;12898;50.520;12.152;2023-07-16T05:58:41;3.67;;;2.20;;
24801;SDS011;12898;50.520;12.152;2023-07-16T06:01:08;4.20;;;2.22;;
24801;SDS011;12898;50.520;12.152;2023-07-16T06:03:33;4.75;;;2.22;;
24801;SDS011;12898;50.520;12.152;2023-07-16T06:05:59;4.35;;;2.65;;
24801;SDS011;12898;50.520;12.152;2023-07-16T06:08:25;8.55;;;2.45;;
24801;SDS011;12898;50.520;12.152;2023-07-16T06:10:51;5.75;;;2.88;;
24801;SDS011;12898;50.520;12.152;2023-07-16T06:13:16;5.68;;;2.50;;
24801;SDS011;12898;50.520;12.152;2023-07-16T06:15:42;4.82;;;2.63;;
24801;SDS011;12898;50.520;12.152;2023-07-16T06:18:09;5.93;;;2.70;;
24801;SDS011;12898;50.520;12.152;2023-07-16T06:20:35;5.82;;;2.25;;
24801;SDS011;12898;50.520;12.152;2023-07-16T06:23:00;7.57;;;2.15;;
24801;SDS011;12898;50.520;12.152;2023-07-16T06:25:26;4.20;;;2.22;;
24801;SDS011;12898;50.520;12.152;2023-07-16T06:27:52;6.82;;;2.40;;
24801;SDS011;12898;50.520;12.152;2023-07-16T06:30:17;7.85;;;2.40;;
24801;SDS011;12898;50.520;12.152;2023-07-16T06:32:43;5.97;;;2.60;;
24801;SDS011;12898;50.520;12.152;2023-07-16T06:35:09;7.03;;;2.35;;
24801;SDS011;12898;50.520;12.152;2023-07-16T06:37:34;11.45;;;2.88;;
24801;SDS011;12898;50.520;12.152;2023-07-16T06:40:00;9.18;;;2.75;;
24801;SDS011;12898;50.520;12.152;2023-07-16T06:42:26;3.60;;;2.00;;
24801;SDS011;12898;50.520;12.152;2023-07-16T06:44:51;6.78;;;2.58;;
24801;SDS011;12898;50.520;12.152;2023-07-16T06:47:17;6.00;;;2.35;;
24801;SDS011;12898;50.520;12.152;2023-07-16T06:49:43;7.88;;;2.65;;
24801;SDS011;12898;50.520;12.152;2023-07-16T06:52:17;5.85;;;2.30;;
24801;SDS011;12898;50.520;12.152;2023-07-16T06:54:47;6.80;;;2.50;;
24801;SDS011;12898;50.520;12.152;2023-07-16T06:57:13;5.43;;;2.33;;
24801;SDS011;12898;50.520;12.152;2023-07-16T06:59:39;5.28;;;2.40;;
24801;SDS011;12898;50.520;12.152;2023-07-16T07:02:05;4.63;;;2.47;;
24801;SDS011;12898;50.520;12.152;2023-07-16T07:04:31;6.45;;;2.10;;
24801;SDS011;12898;50.520;12.152;2023-07-16T07:06:57;7.10;;;2.33;;
24801;SDS011;12898;50.520;12.152;2023-07-16T07:09:22;5.47;;;2.30;;
24801;SDS011;12898;50.520;12.152;2023-07-16T07:11:48;5.25;;;1.90;;
24801;SDS011;12898;50.520;12.152;2023-07-16T07:14:14;4.57;;;2.25;;
24801;SDS011;12898;50.520;12.152;2023-07-16T07:16:39;6.95;;;2.47;;
24801;SDS011;12898;50.520;12.152;2023-07-16T07:19:05;5.43;;;2.22;;
24801;SDS011;12898;50.520;12.152;2023-07-16T07:21:31;8.55;;;2.67;;
24801;SDS011;12898;50.520;12.152;2023-07-16T07:23:57;7.40;;;3.10;;
24801;SDS011;12898;50.520;12.152;2023-07-16T07:26:22;8.05;;;2.63;;
24801;SDS011;12898;50.520;12.152;2023-07-16T07:28:48;8.48;;;2.53;;
24801;SDS011;12898;50.520;12.152;2023-07-16T07:31:14;6.57;;;2.65;;
24801;SDS011;12898;50.520;12.152;2023-07-16T07:33:39;7.43;;;2.63;;
24801;SDS011;12898;50.520;12.152;2023-07-16T07:36:05;6.72;;;2.30;;
24801;SDS011;12898;50.520;12.152;2023-07-16T07:38:31;8.75;;;3.08;;
24801;SDS011;12898;50.520;12.152;2023-07-16T07:40:56;6.15;;;2.65;;
24801;SDS011;12898;50.520;12.152;2023-07-16T07:43:22;9.55;;;3.08;;
24801;SDS011;12898;50.520;12.152;2023-07-16T07:45:48;6.40;;;2.20;;
24801;SDS011;12898;50.520;12.152;2023-07-16T07:48:13;10.77;;;2.50;;
24801;SDS011;12898;50.520;12.152;2023-07-16T07:50:39;8.63;;;2.10;;
24801;SDS011;12898;50.520;12.152;2023-07-16T07:53:05;4.90;;;2.10;;
24801;SDS011;12898;50.520;12.152;2023-07-16T07:55:31;6.78;;;2.20;;
24801;SDS011;12898;50.520;12.152;2023-07-16T07:57:58;5.47;;;2.10;;
24801;SDS011;12898;50.520;12.152;2023-07-16T08:00:24;5.22;;;2.30;;
24801;SDS011;12898;50.520;12.152;2023-07-16T08:02:49;4.47;;;1.95;;
24801;SDS011;12898;50.520;12.152;2023-07-16T08:05:15;6.35;;;2.22;;
24801;SDS011;12898;50.520;12.152;2023-07-16T08:07:41;7.93;;;2.80;;
24801;SDS011;12898;50.520;12.152;2023-07-16T08:10:06;10.10;;;2.80;;
24801;SDS011;12898;50.520;12.152;2023-07-16T08:12:32;6.97;;;2.40;;
24801;SDS011;12898;50.520;12.152;2023-07-16T08:14:58;7.78;;;2.40;;
24801;SDS011;12898;50.520;12.152;2023-07-16T08:17:24;5.47;;;2.40;;
24801;SDS011;12898;50.520;12.152;2023-07-16T08:19:49;6.80;;;2.35;;
24801;SDS011;12898;50.520;12.152;2023-07-16T08:22:15;5.38;;;2.05;;
24801;SDS011;12898;50.520;12.152;2023-07-16T08:24:41;4.32;;;2.20;;
24801;SDS011;12898;50.520;12.152;2023-07-16T08:27:06;4.72;;;2.47;;
24801;SDS011;12898;50.520;12.152;2023-07-16T08:29:32;4.43;;;2.17;;
24801;SDS011;12898;50.520;12.152;2023-07-16T08:32:01;6.93;;;2.42;;
24801;SDS011;12898;50.520;12.152;2023-07-16T08:34:28;6.15;;;2.53;;
24801;SDS011;12898;50.520;12.152;2023-07-16T08:36:53;3.22;;;2.13;;
24801;SDS011;12898;50.520;12.152;2023-07-16T08:39:19;5.95;;;2.10;;
24801;SDS011;12898;50.520;12.152;2023-07-16T08:41:45;6.28;;;2.40;;
24801;SDS011;12898;50.520;12.152;2023-07-16T08:44:11;5.85;;;2.20;;
24801;SDS011;12898;50.520;12.152;2023-07-16T08:46:37;3.75;;;2.00;;
24801;SDS011;12898;50.520;12.152;2023-07-16T08:49:05;5.50;;;2.28;;
24801;SDS011;12898;50.520;12.152;2023-07-16T08:51:32;7.00;;;2.20;;
24801;SDS011;12898;50.520;12.152;2023-07-16T08:54:00;4.22;;;2.35;;
24801;SDS011;12898;50.520;12.152;2023-07-16T08:56:26;5.88;;;2.30;;
24801;SDS011;12898;50.520;12.152;2023-07-16T08:58:53;7.13;;;2.58;;
24801;SDS011;12898;50.520;12.152;2023-07-16T09:01:21;6.60;;;2.38;;
24801;SDS011;12898;50.520;12.152;2023-07-16T09:03:47;6.25;;;2.25;;
24801;SDS011;12898;50.520;12.152;2023-07-16T09:06:12;6.30;;;2.35;;
24801;SDS011;12898;50.520;12.152;2023-07-16T09:08:38;6.63;;;2.50;;
24801;SDS011;12898;50.520;12.152;2023-07-16T09:11:04;5.53;;;2.35;;
24801;SDS011;12898;50.520;12.152;2023-07-16T09:13:30;7.35;;;2.33;;
24801;SDS011;12898;50.520;12.152;2023-07-16T09:15:56;4.47;;;2.22;;
24801;SDS011;12898;50.520;12.152;2023-07-16T09:18:26;7.68;;;2.42;;
24801;SDS011;12898;50.520;12.152;2023-07-16T09:20:56;6.47;;;2.28;;
24801;SDS011;12898;50.520;12.152;2023-07-16T09:23:29;8.10;;;2.58;;
24801;SDS011;12898;50.520;12.152;2023-07-16T09:25:58;4.93;;;2.13;;
24801;SDS011;12898;50.520;12.152;2023-07-16T09:28:24;6.07;;;2.55;;
24801;SDS011;12898;50.520;12.152;2023-07-16T09:30:50;5.72;;;2.17;;
24801;SDS011;12898;50.520;12.152;2023-07-16T09:33:21;5.30;;;2.22;;
24801;SDS011;12898;50.520;12.152;2023-07-16T09:35:50;5.97;;;2.25;;
24801;SDS011;12898;50.520;12.152;2023-07-16T09:38:17;3.95;;;2.10;;
24801;SDS011;12898;50.520;12.152;2023-07-16T09:40:43;6.75;;;2.40;;
24801;SDS011;12898;50.520;12.152;2023-07-16T09:43:13;6.90;;;2.63;;
24801;SDS011;12898;50.520;12.152;2023-07-16T09:45:39;4.97;;;2.30;;
24801;SDS011;12898;50.520;12.152;2023-07-16T09:48:06;5.80;;;2.20;;
24801;SDS011;12898;50.520;12.152;2023-07-16T09:50:32;5.18;;;2.47;;
24801;SDS011;12898;50.520;12.152;2023-07-16T09:53:00;5.72;;;2.15;;
24801;SDS011;12898;50.520;12.152;2023-07-16T09:55:28;6.95;;;2.20;;
24801;SDS011;12898;50.520;12.152;2023-07-16T09:57:59;6.53;;;2.30;;
24801;SDS011;12898;50.520;12.152;2023-07-16T10:00:26;4.97;;;2.28;;
24801;SDS011;12898;50.520;12.152;2023-07-16T10:02:53;4.85;;;2.38;;
24801;SDS011;12898;50.520;12.152;2023-07-16T10:07:50;6.20;;;2.75;;
24801;SDS011;12898;50.520;12.152;2023-07-16T10:10:38;6.97;;;2.40;;
24801;SDS011;12898;50.520;12.152;2023-07-16T10:13:23;7.30;;;2.40;;
24801;SDS011;12898;50.520;12.152;2023-07-16T10:15:56;8.80;;;2.60;;
24801;SDS011;12898;50.520;12.152;2023-07-16T10:18:27;5.00;;;2.30;;
24801;SDS011;12898;50.520;12.152;2023-07-16T10:21:01;5.55;;;2.55;;
24801;SDS011;12898;50.520;12.152;2023-07-16T10:23:39;4.70;;;2.05;;
24801;SDS011;12898;50.520;12.152;2023-07-16T10:26:13;6.43;;;2.30;;
24801;SDS011;12898;50.520;12.152;2023-07-16T10:28:40;5.97;;;1.95;;
24801;SDS011;12898;50.520;12.152;2023-07-16T10:31:06;6.18;;;2.20;;
24801;SDS011;12898;50.520;12.152;2023-07-16T10:33:42;8.40;;;2.83;;
24801;SDS011;12898;50.520;12.152;2023-07-16T10:36:08;8.75;;;2.80;;
24801;SDS011;12898;50.520;12.152;2023-07-16T10:38:40;7.40;;;2.45;;
24801;SDS011;12898;50.520;12.152;2023-07-16T10:41:09;8.85;;;2.70;;
24801;SDS011;12898;50.520;12.152;2023-07-16T10:43:35;8.35;;;2.45;;
24801;SDS011;12898;50.520;12.152;2023-07-16T10:46:01;7.47;;;2.28;;
24801;SDS011;12898;50.520;12.152;2023-07-16T10:48:27;9.25;;;2.70;;
24801;SDS011;12898;50.520;12.152;2023-07-16T10:50:54;8.13;;;2.90;;
24801;SDS011;12898;50.520;12.152;2023-07-16T10:53:20;5.63;;;2.50;;
24801;SDS011;12898;50.520;12.152;2023-07-16T10:55:45;6.57;;;2.55;;
24801;SDS011;12898;50.520;12.152;2023-07-16T10:58:11;8.60;;;2.50;;
24801;SDS011;12898;50.520;12.152;2023-07-16T11:00:41;6.47;;;2.30;;
24801;SDS011;12898;50.520;12.152;2023-07-16T11:03:07;5.03;;;2.42;;
24801;SDS011;12898;50.520;12.152;2023-07-16T11:05:34;5.32;;;2.05;;
24801;SDS011;12898;50.520;12.152;2023-07-16T11:08:01;5.18;;;2.13;;
24801;SDS011;12898;50.520;12.152;2023-07-16T11:10:29;7.15;;;2.10;;
24801;SDS011;12898;50.520;12.152;2023-07-16T11:12:55;6.68;;;2.03;;
24801;SDS011;12898;50.520;12.152;2023-07-16T11:15:31;4.72;;;2.00;;
24801;SDS011;12898;50.520;12.152;2023-07-16T11:17:58;5.10;;;2.22;;
24801;SDS011;12898;50.520;12.152;2023-07-16T11:20:24;7.28;;;2.22;;
24801;SDS011;12898;50.520;12.152;2023-07-16T11:22:49;6.43;;;2.30;;
24801;SDS011;12898;50.520;12.152;2023-07-16T11:25:15;7.22;;;2.15;;
24801;SDS011;12898;50.520;12.152;2023-07-16T11:27:41;8.02;;;2.30;;
24801;SDS011;12898;50.520;12.152;2023-07-16T11:30:07;5.72;;;2.35;;
24801;SDS011;12898;50.520;12.152;2023-07-16T11:35:00;10.32;;;2.58;;
24801;SDS011;12898;50.520;12.152;2023-07-16T11:37:29;8.57;;;2.40;;
24801;SDS011;12898;50.520;12.152;2023-07-16T11:39:58;5.90;;;1.65;;
24801;SDS011;12898;50.520;12.152;2023-07-16T11:42:31;10.05;;;1.95;;
24801;SDS011;12898;50.520;12.152;2023-07-16T11:44:59;7.82;;;2.22;;
24801;SDS011;12898;50.520;12.152;2023-07-16T11:47:26;4.30;;;1.80;;
24801;SDS011;12898;50.520;12.152;2023-07-16T11:49:52;5.07;;;2.10;;
24801;SDS011;12898;50.520;12.152;2023-07-16T11:52:28;7.97;;;2.33;;
24801;SDS011;12898;50.520;12.152;2023-07-16T11:54:56;4.82;;;2.00;;
24801;SDS011;12898;50.520;12.152;2023-07-16T11:57:28;4.40;;;1.67;;
24801;SDS011;12898;50.520;12.152;2023-07-16T11:59:54;7.32;;;1.92;;
24801;SDS011;12898;50.520;12.152;2023-07-16T12:02:20;5.93;;;2.03;;
24801;SDS011;12898;50.520;12.152;2023-07-16T12:04:47;4.45;;;2.08;;
24801;SDS011;12898;50.520;12.152;2023-07-16T12:07:13;3.03;;;1.58;;
24801;SDS011;12898;50.520;12.152;2023-07-16T12:09:40;3.85;;;2.00;;
24801;SDS011;12898;50.520;12.152;2023-07-16T12:12:05;5.82;;;1.90;;
24801;SDS011;12898;50.520;12.152;2023-07-16T12:14:31;8.75;;;2.50;;
24801;SDS011;12898;50.520;12.152;2023-07-16T12:16:57;6.43;;;2.25;;
24801;SDS011;12898;50.520;12.152;2023-07-16T12:19:23;6.45;;;1.92;;
24801;SDS011;12898;50.520;12.152;2023-07-16T12:21:50;7.30;;;2.05;;
24801;SDS011;12898;50.520;12.152;2023-07-16T12:24:16;5.07;;;1.90;;
24801;SDS011;12898;50.520;12.152;2023-07-16T12:26:42;4.90;;;2.10;;
24801;SDS011;12898;50.520;12.152;2023-07-16T12:29:08;6.85;;;2.13;;
24801;SDS011;12898;50.520;12.152;2023-07-16T12:31:33;7.60;;;2.22;;
24801;SDS011;12898;50.520;12.152;2023-07-16T12:33:59;5.88;;;2.08;;
24801;SDS011;12898;50.520;12.152;2023-07-16T12:36:29;8.18;;;2.00;;
24801;SDS011;12898;50.520;12.152;2023-07-16T12:38:55;6.60;;;2.05;;
24801;SDS011;12898;50.520;12.152;2023-07-16T12:41:20;4.90;;;2.13;;
24801;SDS011;12898;50.520;12.152;2023-07-16T12:43:46;6.78;;;2.20;;
24801;SDS011;12898;50.520;12.152;2023-07-16T12:46:12;6.35;;;2.45;;
24801;SDS011;12898;50.520;12.152;2023-07-16T12:48:38;6.05;;;2.00;;
24801;SDS011;12898;50.520;12.152;2023-07-16T12:51:04;6.15;;;2.03;;
24801;SDS011;12898;50.520;12.152;2023-07-16T12:53:30;4.22;;;2.15;;
24801;SDS011;12898;50.520;12.152;2023-07-16T12:55:55;6.30;;;2.10;;
24801;SDS011;12898;50.520;12.152;2023-07-16T12:58:21;4.65;;;2.00;;
24801;SDS011;12898;50.520;12.152;2023-07-16T13:00:47;7.13;;;2.30;;
24801;SDS011;12898;50.520;12.152;2023-07-16T13:03:13;8.10;;;2.65;;
24801;SDS011;12898;50.520;12.152;2023-07-16T13:05:41;9.20;;;2.20;;
24801;SDS011;12898;50.520;12.152;2023-07-16T13:08:10;8.73;;;2.33;;
24801;SDS011;12898;50.520;12.152;2023-07-16T13:10:36;7.53;;;2.10;;
24801;SDS011;12898;50.520;12.152;2023-07-16T13:13:02;9.80;;;2.85;;
24801;SDS011;12898;50.520;12.152;2023-07-16T13:15:28;7.30;;;2.10;;
24801;SDS011;12898;50.520;12.152;2023-07-16T13:17:54;7.43;;;2.40;;
24801;SDS011;12898;50.520;12.152;2023-07-16T13:20:20;7.43;;;2.42;;
24801;SDS011;12898;50.520;12.152;2023-07-16T13:22:47;6.22;;;2.22;;
24801;SDS011;12898;50.520;12.152;2023-07-16T13:25:13;5.30;;;2.20;;
24801;SDS011;12898;50.520;12.152;2023-07-16T13:27:39;7.13;;;2.30;;
24801;SDS011;12898;50.520;12.152;2023-07-16T13:30:05;8.68;;;2.20;;
24801;SDS011;12898;50.520;12.152;2023-07-16T13:32:31;8.70;;;2.33;;
24801;SDS011;12898;50.520;12.152;2023-07-16T13:34:57;6.53;;;2.10;;
24801;SDS011;12898;50.520;12.152;2023-07-16T13:37:23;6.72;;;2.10;;
24801;SDS011;12898;50.520;12.152;2023-07-16T13:39:49;3.97;;;2.10;;
24801;SDS011;12898;50.520;12.152;2023-07-16T13:42:14;4.45;;;2.05;;
24801;SDS011;12898;50.520;12.152;2023-07-16T13:44:40;7.82;;;2.40;;
24801;SDS011;12898;50.520;12.152;2023-07-16T13:47:06;5.30;;;1.85;;
24801;SDS011;12898;50.520;12.152;2023-07-16T13:49:31;6.28;;;2.50;;
24801;SDS011;12898;50.520;12.152;2023-07-16T13:51:57;6.03;;;2.30;;
24801;SDS011;12898;50.520;12.152;2023-07-16T13:54:23;5.18;;;2.28;;
24801;SDS011;12898;50.520;12.152;2023-07-16T13:56:48;6.38;;;2.63;;
24801;SDS011;12898;50.520;12.152;2023-07-16T13:59:14;7.15;;;2.60;;
24801;SDS011;12898;50.520;12.152;2023-07-16T14:01:40;5.65;;;2.05;;
24801;SDS011;12898;50.520;12.152;2023-07-16T14:04:06;5.45;;;2.47;;
24801;SDS011;12898;50.520;12.152;2023-07-16T14:06:32;6.95;;;2.40;;
24801;SDS011;12898;50.520;12.152;2023-07-16T14:08:58;7.70;;;2.13;;
24801;SDS011;12898;50.520;12.152;2023-07-16T14:11:25;8.00;;;2.55;;
24801;SDS011;12898;50.520;12.152;2023-07-16T14:13:51;8.18;;;2.33;;
24801;SDS011;12898;50.520;12.152;2023-07-16T14:16:18;8.43;;;2.10;;
24801;SDS011;12898;50.520;12.152;2023-07-16T14:18:44;6.50;;;2.05;;
24801;SDS011;12898;50.520;12.152;2023-07-16T14:21:10;5.72;;;2.10;;
24801;SDS011;12898;50.520;12.152;2023-07-16T14:23:36;5.93;;;2.30;;
24801;SDS011;12898;50.520;12.152;2023-07-16T14:26:02;6.20;;;2.03;;
24801;SDS011;12898;50.520;12.152;2023-07-16T14:28:28;6.95;;;2.00;;
24801;SDS011;12898;50.520;12.152;2023-07-16T14:30:54;8.85;;;2.50;;
24801;SDS011;12898;50.520;12.152;2023-07-16T14:33:20;5.10;;;2.40;;
24801;SDS011;12898;50.520;12.152;2023-07-16T14:35:46;5.05;;;2.17;;
24801;SDS011;12898;50.520;12.152;2023-07-16T14:38:11;4.63;;;2.25;;
24801;SDS011;12898;50.520;12.152;2023-07-16T14:40:37;4.72;;;2.40;;